sensor_id;sensor_type;location;lat;lon;timestamp;pressure;altitude;pressure_sealevel;temperature;humidity
49194;BME280;35029;50.804;12.866;2022-09-28T00:02:05;95975.72;;;7.52;100.00
49194;BME280;35029;50.804;12.866;2022-09-28T00:04:31;95975.38;;;7.49;100.00
49194;BME280;35029;50.804;12.866;2022-09-28T00:06:58;95972.34;;;7.45;100.00
49194;BME280;35029;50.804;12.866;2022-09-28T00:09:23;95968.69;;;7.46;100.00
49194;BME280;35029;50.804;12.866;2022-09-28T00:11:51;95967.66;;;7.47;100.00
49194;BME280;35029;50.804;12.866;2022-09-28T00:14:19;95962.47;;;7.40;100.00
49194;BME280;35029;50.804;12.866;2022-09-28T00:16:44;95965.84;;;7.48;100.00
49194;BME280;35029;50.804;12.866;2022-09-28T00:19:11;95936.31;;;7.39;100.00
49194;BME280;35029;50.804;12.866;2022-09-28T00:21:40;95957.84;;;7.54;100.00
49194;BME280;35029;50.804;12.866;2022-09-28T00:24:09;95961.97;;;7.50;100.00
49194;BME280;35029;50.804;12.866;2022-09-28T00:26:54;95958.72;;;7.48;100.00
49194;BME280;35029;50.804;12.866;2022-09-28T00:29:25;95948.09;;;7.55;100.00
49194;BME280;35029;50.804;12.866;2022-09-28T00:31:54;95922.09;;;7.40;100.00
49194;BME280;35029;50.804;12.866;2022-09-28T00:34:28;95959.59;;;7.60;100.00
49194;BME280;35029;50.804;12.866;2022-09-28T00:36:56;95952.50;;;7.61;100.00
49194;BME280;35029;50.804;12.866;2022-09-28T00:39:22;95945.69;;;7.53;100.00
49194;BME280;35029;50.804;12.866;2022-09-28T00:41:48;95961.94;;;7.69;100.00
49194;BME280;35029;50.804;12.866;2022-09-28T00:47:02;95949.66;;;7.63;100.00
49194;BME280;35029;50.804;12.866;2022-09-28T00:52:54;95952.44;;;7.68;100.00
49194;BME280;35029;50.804;12.866;2022-09-28T00:55:49;95945.41;;;7.61;99.99
49194;BME280;35029;50.804;12.866;2022-09-28T00:58:20;95941.28;;;7.66;100.00
49194;BME280;35029;50.804;12.866;2022-09-28T01:00:48;95946.34;;;7.67;100.00
49194;BME280;35029;50.804;12.866;2022-09-28T01:03:15;95943.13;;;7.65;100.00
49194;BME280;35029;50.804;12.866;2022-09-28T01:05:42;95905.34;;;7.34;100.00
49194;BME280;35029;50.804;12.866;2022-09-28T01:08:09;95925.06;;;7.50;100.00
49194;BME280;35029;50.804;12.866;2022-09-28T01:10:37;95933.22;;;7.60;100.00
49194;BME280;35029;50.804;12.866;2022-09-28T01:13:03;95945.84;;;7.58;100.00
49194;BME280;35029;50.804;12.866;2022-09-28T01:15:33;95942.09;;;7.48;100.00
49194;BME280;35029;50.804;12.866;2022-09-28T01:18:12;95930.75;;;7.47;100.00
49194;BME280;35029;50.804;12.866;2022-09-28T01:28:50;95915.38;;;7.44;100.00
49194;BME280;35029;50.804;12.866;2022-09-28T01:31:20;95933.09;;;7.55;100.00
49194;BME280;35029;50.804;12.866;2022-09-28T01:33:55;95927.09;;;7.67;100.00
49194;BME280;35029;50.804;12.866;2022-09-28T01:36:32;95923.94;;;7.58;100.00
49194;BME280;35029;50.804;12.866;2022-09-28T01:39:16;95922.84;;;7.66;100.00
49194;BME280;35029;50.804;12.866;2022-09-28T01:41:45;95919.75;;;7.69;100.00
49194;BME280;35029;50.804;12.866;2022-09-28T01:44:16;95919.25;;;7.60;100.00
49194;BME280;35029;50.804;12.866;2022-09-28T01:46:45;95919.69;;;7.57;100.00
49194;BME280;35029;50.804;12.866;2022-09-28T01:49:19;95924.16;;;7.56;100.00
49194;BME280;35029;50.804;12.866;2022-09-28T01:54:25;95902.97;;;7.63;100.00
49194;BME280;35029;50.804;12.866;2022-09-28T01:57:13;95905.03;;;7.61;100.00
49194;BME280;35029;50.804;12.866;2022-09-28T01:59:45;95885.06;;;7.53;100.00
49194;BME280;35029;50.804;12.866;2022-09-28T02:02:17;95892.88;;;7.60;100.00
49194;BME280;35029;50.804;12.866;2022-09-28T02:07:36;95887.47;;;7.55;100.00
49194;BME280;35029;50.804;12.866;2022-09-28T02:10:12;95883.22;;;7.54;100.00
49194;BME280;35029;50.804;12.866;2022-09-28T02:12:45;95868.94;;;7.43;100.00
49194;BME280;35029;50.804;12.866;2022-09-28T02:15:48;95877.81;;;7.49;100.00
49194;BME280;35029;50.804;12.866;2022-09-28T02:18:14;95873.94;;;7.51;100.00
49194;BME280;35029;50.804;12.866;2022-09-28T02:20:41;95872.63;;;7.42;100.00
49194;BME280;35029;50.804;12.866;2022-09-28T02:23:12;95863.66;;;7.43;100.00
49194;BME280;35029;50.804;12.866;2022-09-28T02:25:44;95865.06;;;7.45;100.00
49194;BME280;35029;50.804;12.866;2022-09-28T02:28:12;95856.91;;;7.47;100.00
49194;BME280;35029;50.804;12.866;2022-09-28T02:30:39;95850.84;;;7.47;100.00
49194;BME280;35029;50.804;12.866;2022-09-28T02:33:27;95852.56;;;7.41;100.00
49194;BME280;35029;50.804;12.866;2022-09-28T02:35:54;95832.78;;;7.32;100.00
49194;BME280;35029;50.804;12.866;2022-09-28T02:38:22;95847.97;;;7.36;100.00
49194;BME280;35029;50.804;12.866;2022-09-28T02:44:15;95844.44;;;7.24;100.00
49194;BME280;35029;50.804;12.866;2022-09-28T02:47:04;95843.25;;;7.20;100.00
49194;BME280;35029;50.804;12.866;2022-09-28T03:00:07;95874.28;;;6.99;100.00
49194;BME280;35029;50.804;12.866;2022-09-28T03:02:54;95869.91;;;6.93;100.00
49194;BME280;35029;50.804;12.866;2022-09-28T03:05:44;95863.25;;;6.90;100.00
49194;BME280;35029;50.804;12.866;2022-09-28T03:08:23;95843.53;;;6.74;100.00
49194;BME280;35029;50.804;12.866;2022-09-28T03:11:02;95868.94;;;6.87;100.00
49194;BME280;35029;50.804;12.866;2022-09-28T03:13:30;95864.69;;;6.86;100.00
49194;BME280;35029;50.804;12.866;2022-09-28T03:16:10;95861.84;;;6.88;100.00
49194;BME280;35029;50.804;12.866;2022-09-28T03:18:37;95822.13;;;6.71;100.00
49194;BME280;35029;50.804;12.866;2022-09-28T03:21:03;95835.72;;;6.86;100.00
49194;BME280;35029;50.804;12.866;2022-09-28T03:23:30;95829.78;;;6.91;100.00
49194;BME280;35029;50.804;12.866;2022-09-28T03:25:55;95817.44;;;6.91;100.00
49194;BME280;35029;50.804;12.866;2022-09-28T03:28:21;95806.09;;;6.91;100.00
49194;BME280;35029;50.804;12.866;2022-09-28T03:30:48;95817.22;;;6.93;100.00
49194;BME280;35029;50.804;12.866;2022-09-28T03:33:14;95817.88;;;6.88;100.00
49194;BME280;35029;50.804;12.866;2022-09-28T03:35:40;95811.06;;;6.81;100.00
49194;BME280;35029;50.804;12.866;2022-09-28T03:38:06;95812.31;;;6.78;100.00
49194;BME280;35029;50.804;12.866;2022-09-28T03:40:35;95820.44;;;6.76;100.00
49194;BME280;35029;50.804;12.866;2022-09-28T03:43:01;95810.31;;;6.73;100.00
49194;BME280;35029;50.804;12.866;2022-09-28T03:45:26;95818.44;;;6.72;100.00
49194;BME280;35029;50.804;12.866;2022-09-28T03:47:52;95811.22;;;6.67;100.00
49194;BME280;35029;50.804;12.866;2022-09-28T03:50:17;95815.47;;;6.68;100.00
49194;BME280;35029;50.804;12.866;2022-09-28T03:52:43;95785.81;;;6.54;100.00
49194;BME280;35029;50.804;12.866;2022-09-28T03:55:09;95816.47;;;6.67;100.00
49194;BME280;35029;50.804;12.866;2022-09-28T03:57:36;95806.00;;;6.60;100.00
49194;BME280;35029;50.804;12.866;2022-09-28T04:00:03;95799.06;;;6.66;100.00
49194;BME280;35029;50.804;12.866;2022-09-28T04:02:39;95790.81;;;6.63;100.00
49194;BME280;35029;50.804;12.866;2022-09-28T04:05:05;95790.22;;;6.60;100.00
49194;BME280;35029;50.804;12.866;2022-09-28T04:07:30;95765.63;;;6.48;100.00
49194;BME280;35029;50.804;12.866;2022-09-28T04:09:56;95782.53;;;6.59;100.00
49194;BME280;35029;50.804;12.866;2022-09-28T04:12:21;95784.16;;;6.60;100.00
49194;BME280;35029;50.804;12.866;2022-09-28T04:14:47;95778.88;;;6.60;100.00
49194;BME280;35029;50.804;12.866;2022-09-28T04:17:12;95769.75;;;6.63;100.00
49194;BME280;35029;50.804;12.866;2022-09-28T04:19:39;95771.13;;;6.65;100.00
49194;BME280;35029;50.804;12.866;2022-09-28T04:22:17;95757.81;;;6.60;100.00
49194;BME280;35029;50.804;12.866;2022-09-28T04:24:42;95753.19;;;6.55;100.00
49194;BME280;35029;50.804;12.866;2022-09-28T04:27:08;95752.19;;;6.56;100.00
49194;BME280;35029;50.804;12.866;2022-09-28T04:29:52;95735.38;;;6.57;100.00
49194;BME280;35029;50.804;12.866;2022-09-28T04:32:17;95746.91;;;6.56;100.00
49194;BME280;35029;50.804;12.866;2022-09-28T04:34:43;95751.00;;;6.52;100.00
49194;BME280;35029;50.804;12.866;2022-09-28T04:37:08;95737.06;;;6.52;100.00
49194;BME280;35029;50.804;12.866;2022-09-28T04:39:34;95739.03;;;6.56;100.00
49194;BME280;35029;50.804;12.866;2022-09-28T04:41:59;95740.03;;;6.55;100.00
49194;BME280;35029;50.804;12.866;2022-09-28T04:44:26;95735.44;;;6.51;100.00
49194;BME280;35029;50.804;12.866;2022-09-28T04:46:57;95719.13;;;6.42;100.00
49194;BME280;35029;50.804;12.866;2022-09-28T04:49:28;95726.88;;;6.37;100.00
49194;BME280;35029;50.804;12.866;2022-09-28T04:52:04;95720.50;;;6.45;100.00
49194;BME280;35029;50.804;12.866;2022-09-28T04:54:32;95694.31;;;6.31;100.00
49194;BME280;35029;50.804;12.866;2022-09-28T04:56:57;95722.13;;;6.46;100.00
49194;BME280;35029;50.804;12.866;2022-09-28T04:59:23;95722.28;;;6.51;100.00
49194;BME280;35029;50.804;12.866;2022-09-28T05:01:48;95726.53;;;6.52;100.00
49194;BME280;35029;50.804;12.866;2022-09-28T05:04:33;95721.44;;;6.50;100.00
49194;BME280;35029;50.804;12.866;2022-09-28T05:07:30;95719.28;;;6.47;100.00
49194;BME280;35029;50.804;12.866;2022-09-28T05:09:58;95709.97;;;6.45;100.00
49194;BME280;35029;50.804;12.866;2022-09-28T05:12:24;95710.81;;;6.45;100.00
49194;BME280;35029;50.804;12.866;2022-09-28T05:14:51;95703.91;;;6.44;100.00
49194;BME280;35029;50.804;12.866;2022-09-28T05:17:16;95692.59;;;6.43;100.00
49194;BME280;35029;50.804;12.866;2022-09-28T05:20:05;95691.94;;;6.48;100.00
49194;BME280;35029;50.804;12.866;2022-09-28T05:22:31;95683.13;;;6.54;100.00
49194;BME280;35029;50.804;12.866;2022-09-28T05:24:57;95654.94;;;6.43;100.00
49194;BME280;35029;50.804;12.866;2022-09-28T05:27:24;95671.03;;;6.53;100.00
49194;BME280;35029;50.804;12.866;2022-09-28T05:29:59;95660.91;;;6.50;100.00
49194;BME280;35029;50.804;12.866;2022-09-28T05:32:43;95652.00;;;6.51;100.00
49194;BME280;35029;50.804;12.866;2022-09-28T05:35:38;95658.09;;;6.52;100.00
49194;BME280;35029;50.804;12.866;2022-09-28T05:38:03;95654.78;;;6.56;100.00
49194;BME280;35029;50.804;12.866;2022-09-28T05:40:30;95647.25;;;6.60;100.00
49194;BME280;35029;50.804;12.866;2022-09-28T05:43:00;95640.47;;;6.52;100.00
49194;BME280;35029;50.804;12.866;2022-09-28T05:45:30;95645.28;;;6.55;100.00
49194;BME280;35029;50.804;12.866;2022-09-28T05:47:56;95648.66;;;6.63;100.00
49194;BME280;35029;50.804;12.866;2022-09-28T05:50:22;95643.06;;;6.71;100.00
49194;BME280;35029;50.804;12.866;2022-09-28T05:52:57;95622.00;;;6.71;100.00
49194;BME280;35029;50.804;12.866;2022-09-28T05:55:22;95625.91;;;6.80;100.00
49194;BME280;35029;50.804;12.866;2022-09-28T05:57:48;95626.38;;;6.77;100.00
49194;BME280;35029;50.804;12.866;2022-09-28T06:00:13;95646.34;;;6.97;100.00
49194;BME280;35029;50.804;12.866;2022-09-28T06:02:43;95644.53;;;6.97;100.00
49194;BME280;35029;50.804;12.866;2022-09-28T06:05:11;95623.25;;;6.99;100.00
49194;BME280;35029;50.804;12.866;2022-09-28T06:07:37;95626.81;;;7.04;100.00
49194;BME280;35029;50.804;12.866;2022-09-28T06:10:03;95637.72;;;7.08;100.00
49194;BME280;35029;50.804;12.866;2022-09-28T06:12:55;95638.41;;;7.15;100.00
49194;BME280;35029;50.804;12.866;2022-09-28T06:15:23;95627.19;;;7.20;100.00
49194;BME280;35029;50.804;12.866;2022-09-28T06:17:55;95630.19;;;7.23;100.00
49194;BME280;35029;50.804;12.866;2022-09-28T06:20:36;95630.31;;;7.28;100.00
49194;BME280;35029;50.804;12.866;2022-09-28T06:23:11;95625.59;;;7.31;100.00
49194;BME280;35029;50.804;12.866;2022-09-28T06:25:37;95620.56;;;7.29;100.00
49194;BME280;35029;50.804;12.866;2022-09-28T06:28:05;95627.91;;;7.39;100.00
49194;BME280;35029;50.804;12.866;2022-09-28T06:30:33;95628.25;;;7.42;100.00
49194;BME280;35029;50.804;12.866;2022-09-28T06:33:00;95629.50;;;7.40;100.00
49194;BME280;35029;50.804;12.866;2022-09-28T06:35:28;95629.06;;;7.43;100.00
49194;BME280;35029;50.804;12.866;2022-09-28T06:37:55;95624.00;;;7.41;100.00
49194;BME280;35029;50.804;12.866;2022-09-28T06:40:21;95654.88;;;7.53;100.00
49194;BME280;35029;50.804;12.866;2022-09-28T06:42:57;95641.47;;;7.54;100.00
49194;BME280;35029;50.804;12.866;2022-09-28T06:45:50;95648.78;;;7.52;100.00
49194;BME280;35029;50.804;12.866;2022-09-28T06:48:49;95645.13;;;7.53;100.00
49194;BME280;35029;50.804;12.866;2022-09-28T06:51:35;95650.41;;;7.53;100.00
49194;BME280;35029;50.804;12.866;2022-09-28T06:54:10;95650.41;;;7.53;100.00
49194;BME280;35029;50.804;12.866;2022-09-28T06:56:46;95651.88;;;7.49;100.00
49194;BME280;35029;50.804;12.866;2022-09-28T06:59:12;95643.97;;;7.49;100.00
49194;BME280;35029;50.804;12.866;2022-09-28T07:01:37;95650.88;;;7.50;100.00
49194;BME280;35029;50.804;12.866;2022-09-28T07:04:18;95635.47;;;7.47;100.00
49194;BME280;35029;50.804;12.866;2022-09-28T07:06:59;95628.03;;;7.44;100.00
49194;BME280;35029;50.804;12.866;2022-09-28T07:09:43;95638.84;;;7.54;100.00
49194;BME280;35029;50.804;12.866;2022-09-28T07:12:20;95639.16;;;7.58;100.00
49194;BME280;35029;50.804;12.866;2022-09-28T07:14:59;95638.13;;;7.59;100.00
49194;BME280;35029;50.804;12.866;2022-09-28T07:17:26;95627.25;;;7.55;100.00
49194;BME280;35029;50.804;12.866;2022-09-28T07:19:53;95625.66;;;7.54;100.00
49194;BME280;35029;50.804;12.866;2022-09-28T07:22:22;95624.72;;;7.49;100.00
49194;BME280;35029;50.804;12.866;2022-09-28T07:24:49;95640.22;;;7.57;100.00
49194;BME280;35029;50.804;12.866;2022-09-28T07:27:34;95638.94;;;7.48;100.00
49194;BME280;35029;50.804;12.866;2022-09-28T07:30:13;95651.00;;;7.55;100.00
49194;BME280;35029;50.804;12.866;2022-09-28T07:32:54;95648.56;;;7.54;100.00
49194;BME280;35029;50.804;12.866;2022-09-28T07:35:35;95649.00;;;7.51;100.00
49194;BME280;35029;50.804;12.866;2022-09-28T07:38:05;95647.41;;;7.50;100.00
49194;BME280;35029;50.804;12.866;2022-09-28T07:40:32;95632.97;;;7.52;100.00
49194;BME280;35029;50.804;12.866;2022-09-28T07:43:17;95626.22;;;7.56;100.00
49194;BME280;35029;50.804;12.866;2022-09-28T07:45:48;95604.06;;;7.45;100.00
49194;BME280;35029;50.804;12.866;2022-09-28T07:48:15;95618.41;;;7.61;100.00
49194;BME280;35029;50.804;12.866;2022-09-28T07:51:00;95624.72;;;7.60;100.00
49194;BME280;35029;50.804;12.866;2022-09-28T07:53:31;95620.59;;;7.65;100.00
49194;BME280;35029;50.804;12.866;2022-09-28T07:56:22;95618.88;;;7.58;100.00
49194;BME280;35029;50.804;12.866;2022-09-28T07:58:56;95626.69;;;7.65;100.00
49194;BME280;35029;50.804;12.866;2022-09-28T08:01:40;95625.88;;;7.65;100.00
49194;BME280;35029;50.804;12.866;2022-09-28T08:04:10;95619.34;;;7.67;100.00
49194;BME280;35029;50.804;12.866;2022-09-28T08:06:39;95617.53;;;7.68;100.00
49194;BME280;35029;50.804;12.866;2022-09-28T08:09:07;95615.91;;;7.67;100.00
49194;BME280;35029;50.804;12.866;2022-09-28T08:11:55;95615.31;;;7.65;100.00
49194;BME280;35029;50.804;12.866;2022-09-28T08:14:40;95613.75;;;7.64;100.00
49194;BME280;35029;50.804;12.866;2022-09-28T08:17:24;95607.19;;;7.66;100.00
49194;BME280;35029;50.804;12.866;2022-09-28T08:19:54;95607.88;;;7.73;100.00
49194;BME280;35029;50.804;12.866;2022-09-28T08:22:38;95603.66;;;7.84;100.00
49194;BME280;35029;50.804;12.866;2022-09-28T08:25:08;95596.16;;;7.93;100.00
49194;BME280;35029;50.804;12.866;2022-09-28T08:27:36;95601.31;;;8.00;100.00
49194;BME280;35029;50.804;12.866;2022-09-28T08:30:03;95618.53;;;8.02;100.00
49194;BME280;35029;50.804;12.866;2022-09-28T08:32:37;95594.09;;;8.07;100.00
49194;BME280;35029;50.804;12.866;2022-09-28T08:35:23;95593.84;;;8.08;100.00
49194;BME280;35029;50.804;12.866;2022-09-28T08:38:17;95597.06;;;8.22;100.00
49194;BME280;35029;50.804;12.866;2022-09-28T08:40:54;95602.41;;;8.27;100.00
49194;BME280;35029;50.804;12.866;2022-09-28T08:46:42;95592.41;;;8.41;100.00
49194;BME280;35029;50.804;12.866;2022-09-28T08:49:42;95596.44;;;8.44;100.00
49194;BME280;35029;50.804;12.866;2022-09-28T08:52:31;95594.38;;;8.46;100.00
49194;BME280;35029;50.804;12.866;2022-09-28T08:55:29;95595.16;;;8.46;100.00
49194;BME280;35029;50.804;12.866;2022-09-28T08:58:09;95603.22;;;8.40;100.00
49194;BME280;35029;50.804;12.866;2022-09-28T09:00:50;95593.81;;;8.32;100.00
49194;BME280;35029;50.804;12.866;2022-09-28T09:03:37;95594.16;;;8.36;100.00
49194;BME280;35029;50.804;12.866;2022-09-28T09:09:34;95597.88;;;8.63;100.00
49194;BME280;35029;50.804;12.866;2022-09-28T09:18:05;95584.34;;;9.06;100.00
49194;BME280;35029;50.804;12.866;2022-09-28T09:20:57;95587.16;;;9.16;100.00
49194;BME280;35029;50.804;12.866;2022-09-28T09:23:57;95591.66;;;9.16;100.00
49194;BME280;35029;50.804;12.866;2022-09-28T09:26:36;95597.22;;;9.02;100.00
49194;BME280;35029;50.804;12.866;2022-09-28T09:38:05;95591.09;;;9.13;100.00
49194;BME280;35029;50.804;12.866;2022-09-28T09:49:27;95599.91;;;9.36;98.99
49194;BME280;35029;50.804;12.866;2022-09-28T10:00:43;95639.38;;;8.51;100.00
49194;BME280;35029;50.804;12.866;2022-09-28T10:03:27;95647.41;;;8.33;100.00
49194;BME280;35029;50.804;12.866;2022-09-28T10:06:08;95647.41;;;8.33;100.00
49194;BME280;35029;50.804;12.866;2022-09-28T10:08:51;95643.03;;;8.38;100.00
49194;BME280;35029;50.804;12.866;2022-09-28T10:11:30;95626.88;;;8.35;100.00
49194;BME280;35029;50.804;12.866;2022-09-28T10:13:58;95645.47;;;8.40;100.00
49194;BME280;35029;50.804;12.866;2022-09-28T10:16:40;95639.91;;;8.53;100.00
49194;BME280;35029;50.804;12.866;2022-09-28T10:19:13;95657.16;;;8.85;100.00
49194;BME280;35029;50.804;12.866;2022-09-28T10:22:02;95643.44;;;9.00;100.00
49194;BME280;35029;50.804;12.866;2022-09-28T10:24:32;95643.50;;;9.34;100.00
49194;BME280;35029;50.804;12.866;2022-09-28T10:27:17;95649.00;;;9.15;100.00
49194;BME280;35029;50.804;12.866;2022-09-28T10:32:40;95652.72;;;9.02;100.00
49194;BME280;35029;50.804;12.866;2022-09-28T10:40:48;95660.03;;;9.12;100.00
49194;BME280;35029;50.804;12.866;2022-09-28T10:43:35;95649.25;;;9.30;100.00
49194;BME280;35029;50.804;12.866;2022-09-28T10:46:11;95666.31;;;9.23;97.56
49194;BME280;35029;50.804;12.866;2022-09-28T10:51:15;95675.66;;;9.42;96.36
49194;BME280;35029;50.804;12.866;2022-09-28T10:53:57;95683.69;;;9.47;95.43
49194;BME280;35029;50.804;12.866;2022-09-28T10:56:39;95674.59;;;9.43;95.19
49194;BME280;35029;50.804;12.866;2022-09-28T11:04:27;95687.66;;;9.04;98.60
49194;BME280;35029;50.804;12.866;2022-09-28T11:06:55;95693.88;;;9.27;100.00
49194;BME280;35029;50.804;12.866;2022-09-28T11:09:30;95707.47;;;9.19;97.35
49194;BME280;35029;50.804;12.866;2022-09-28T11:11:59;95705.69;;;9.07;97.27
49194;BME280;35029;50.804;12.866;2022-09-28T11:14:31;95700.97;;;9.55;98.01
49194;BME280;35029;50.804;12.866;2022-09-28T11:19:49;95702.59;;;9.56;95.11
49194;BME280;35029;50.804;12.866;2022-09-28T11:22:21;95701.31;;;9.59;94.30
49194;BME280;35029;50.804;12.866;2022-09-28T11:24:50;95698.69;;;9.93;94.01
49194;BME280;35029;50.804;12.866;2022-09-28T11:27:21;95676.03;;;10.58;88.91
49194;BME280;35029;50.804;12.866;2022-09-28T11:29:54;95697.81;;;10.82;86.35
49194;BME280;35029;50.804;12.866;2022-09-28T11:32:43;95701.06;;;10.68;87.43
49194;BME280;35029;50.804;12.866;2022-09-28T11:41:26;95709.81;;;9.95;87.65
49194;BME280;35029;50.804;12.866;2022-09-28T11:49:41;95710.22;;;9.87;90.17
49194;BME280;35029;50.804;12.866;2022-09-28T11:54:53;95711.97;;;9.81;92.10
49194;BME280;35029;50.804;12.866;2022-09-28T11:57:24;95717.19;;;9.76;92.63
49194;BME280;35029;50.804;12.866;2022-09-28T11:59:58;95719.09;;;9.63;92.36
49194;BME280;35029;50.804;12.866;2022-09-28T12:02:35;95723.16;;;9.54;93.66
49194;BME280;35029;50.804;12.866;2022-09-28T12:05:23;95738.88;;;9.44;93.61
49194;BME280;35029;50.804;12.866;2022-09-28T12:07:59;95741.63;;;9.49;94.84
49194;BME280;35029;50.804;12.866;2022-09-28T12:13:44;95734.28;;;9.68;95.94
49194;BME280;35029;50.804;12.866;2022-09-28T12:16:23;95728.56;;;9.59;95.71
49194;BME280;35029;50.804;12.866;2022-09-28T12:21:31;95735.06;;;9.52;96.13
49194;BME280;35029;50.804;12.866;2022-09-28T12:24:05;95749.56;;;9.49;97.27
49194;BME280;35029;50.804;12.866;2022-09-28T12:29:13;95738.97;;;9.49;96.21
49194;BME280;35029;50.804;12.866;2022-09-28T12:31:58;95744.13;;;9.56;96.38
49194;BME280;35029;50.804;12.866;2022-09-28T12:34:27;95752.94;;;9.61;95.02
49194;BME280;35029;50.804;12.866;2022-09-28T12:45:46;95750.72;;;9.87;94.50
49194;BME280;35029;50.804;12.866;2022-09-28T12:51:46;95758.84;;;9.52;93.01
49194;BME280;35029;50.804;12.866;2022-09-28T13:00:04;95771.16;;;9.92;88.82
49194;BME280;35029;50.804;12.866;2022-09-28T13:05:09;95771.44;;;10.80;85.72
49194;BME280;35029;50.804;12.866;2022-09-28T13:16:14;95778.41;;;10.47;84.25
49194;BME280;35029;50.804;12.866;2022-09-28T13:21:47;95792.78;;;10.52;84.55
49194;BME280;35029;50.804;12.866;2022-09-28T13:24:23;95776.72;;;10.41;84.03
49194;BME280;35029;50.804;12.866;2022-09-28T13:26:56;95789.56;;;10.32;83.00
49194;BME280;35029;50.804;12.866;2022-09-28T13:29:24;95787.88;;;10.60;80.70
49194;BME280;35029;50.804;12.866;2022-09-28T13:31:57;95782.69;;;11.10;79.25
49194;BME280;35029;50.804;12.866;2022-09-28T13:34:27;95785.09;;;11.33;78.69
49194;BME280;35029;50.804;12.866;2022-09-28T13:39:53;95791.88;;;10.80;80.17
49194;BME280;35029;50.804;12.866;2022-09-28T13:43:02;95794.25;;;10.81;83.12
49194;BME280;35029;50.804;12.866;2022-09-28T13:45:49;95795.09;;;10.65;84.61
49194;BME280;35029;50.804;12.866;2022-09-28T13:48:32;95799.13;;;10.51;85.15
49194;BME280;35029;50.804;12.866;2022-09-28T13:51:23;95802.19;;;10.42;85.40
49194;BME280;35029;50.804;12.866;2022-09-28T13:54:11;95803.03;;;10.31;83.93
49194;BME280;35029;50.804;12.866;2022-09-28T13:56:52;95799.81;;;10.29;86.30
49194;BME280;35029;50.804;12.866;2022-09-28T13:59:29;95804.00;;;10.25;87.48
49194;BME280;35029;50.804;12.866;2022-09-28T14:04:54;95813.94;;;10.18;85.50
49194;BME280;35029;50.804;12.866;2022-09-28T14:07:24;95817.72;;;10.22;83.62
49194;BME280;35029;50.804;12.866;2022-09-28T14:10:15;95811.50;;;10.45;81.29
49194;BME280;35029;50.804;12.866;2022-09-28T14:18:20;95809.03;;;11.39;73.08
49194;BME280;35029;50.804;12.866;2022-09-28T14:29:26;95841.28;;;10.35;76.33
49194;BME280;35029;50.804;12.866;2022-09-28T14:31:56;95841.78;;;10.20;76.88
49194;BME280;35029;50.804;12.866;2022-09-28T14:34:25;95850.03;;;10.07;77.85
49194;BME280;35029;50.804;12.866;2022-09-28T14:36:55;95860.50;;;9.85;80.42
49194;BME280;35029;50.804;12.866;2022-09-28T14:39:43;95863.84;;;9.51;83.86
49194;BME280;35029;50.804;12.866;2022-09-28T14:42:28;95861.91;;;9.35;88.50
49194;BME280;35029;50.804;12.866;2022-09-28T14:47:42;95846.13;;;9.52;91.44
49194;BME280;35029;50.804;12.866;2022-09-28T14:50:21;95844.63;;;9.85;91.10
49194;BME280;35029;50.804;12.866;2022-09-28T14:52:50;95841.94;;;10.30;91.60
49194;BME280;35029;50.804;12.866;2022-09-28T14:55:23;95849.09;;;10.13;90.84
49194;BME280;35029;50.804;12.866;2022-09-28T14:57:52;95848.72;;;9.92;89.45
49194;BME280;35029;50.804;12.866;2022-09-28T15:00:23;95844.28;;;10.27;91.10
49194;BME280;35029;50.804;12.866;2022-09-28T15:02:51;95854.00;;;10.89;83.54
49194;BME280;35029;50.804;12.866;2022-09-28T15:05:25;95848.66;;;11.50;84.24
49194;BME280;35029;50.804;12.866;2022-09-28T15:07:52;95853.53;;;11.81;80.28
49194;BME280;35029;50.804;12.866;2022-09-28T15:10:31;95851.25;;;12.17;79.42
49194;BME280;35029;50.804;12.866;2022-09-28T15:13:02;95857.81;;;12.37;78.35
49194;BME280;35029;50.804;12.866;2022-09-28T15:15:33;95845.84;;;12.34;76.01
49194;BME280;35029;50.804;12.866;2022-09-28T15:20:54;95863.00;;;12.91;74.78
49194;BME280;35029;50.804;12.866;2022-09-28T15:25:52;95862.25;;;12.31;72.27
49194;BME280;35029;50.804;12.866;2022-09-28T15:28:20;95866.03;;;12.35;72.33
49194;BME280;35029;50.804;12.866;2022-09-28T15:30:46;95861.34;;;11.93;72.47
49194;BME280;35029;50.804;12.866;2022-09-28T15:33:30;95869.59;;;11.25;74.98
49194;BME280;35029;50.804;12.866;2022-09-28T15:36:20;95882.56;;;11.04;78.32
49194;BME280;35029;50.804;12.866;2022-09-28T15:39:11;95877.34;;;11.09;79.65
49194;BME280;35029;50.804;12.866;2022-09-28T15:41:40;95885.16;;;10.82;78.83
49194;BME280;35029;50.804;12.866;2022-09-28T15:44:29;95889.22;;;10.68;80.76
49194;BME280;35029;50.804;12.866;2022-09-28T15:47:14;95888.59;;;10.31;83.06
49194;BME280;35029;50.804;12.866;2022-09-28T15:50:18;95893.13;;;10.19;84.42
49194;BME280;35029;50.804;12.866;2022-09-28T15:52:44;95887.72;;;9.97;84.35
49194;BME280;35029;50.804;12.866;2022-09-28T15:55:21;95899.31;;;9.79;84.02
49194;BME280;35029;50.804;12.866;2022-09-28T15:57:49;95894.16;;;9.72;85.25
49194;BME280;35029;50.804;12.866;2022-09-28T16:00:24;95899.50;;;9.77;86.11
49194;BME280;35029;50.804;12.866;2022-09-28T16:08:14;95908.44;;;9.59;88.09
49194;BME280;35029;50.804;12.866;2022-09-28T16:13:29;95919.97;;;9.53;89.35
49194;BME280;35029;50.804;12.866;2022-09-28T16:15:58;95923.41;;;9.54;89.56
49194;BME280;35029;50.804;12.866;2022-09-28T16:18:26;95928.34;;;9.50;89.79
49194;BME280;35029;50.804;12.866;2022-09-28T16:20:53;95918.91;;;9.54;90.47
49194;BME280;35029;50.804;12.866;2022-09-28T16:23:29;95924.09;;;9.49;92.61
49194;BME280;35029;50.804;12.866;2022-09-28T16:26:14;95930.97;;;9.50;94.75
49194;BME280;35029;50.804;12.866;2022-09-28T16:33:43;95936.63;;;9.42;96.36
49194;BME280;35029;50.804;12.866;2022-09-28T16:36:14;95941.69;;;9.43;97.07